createdAt,value
2019-03-10T00:00:05.798Z,974.23
2019-03-10T00:01:05.719Z,974.14
2019-03-10T00:02:05.754Z,974.26
2019-03-10T00:03:05.783Z,974.31
2019-03-10T00:04:05.794Z,974.28
2019-03-10T00:05:05.851Z,974.20
2019-03-10T00:06:05.782Z,974.34
2019-03-10T00:07:05.794Z,974.20
2019-03-10T00:08:08.415Z,974.17
2019-03-10T00:09:05.814Z,974.36
2019-03-10T00:10:05.787Z,974.08
2019-03-10T00:11:05.805Z,974.25
2019-03-10T00:12:05.793Z,974.22
2019-03-10T00:13:05.890Z,974.05
2019-03-10T00:14:05.802Z,974.05
2019-03-10T00:15:05.833Z,974.11
2019-03-10T00:16:05.786Z,974.11
2019-03-10T00:17:05.825Z,974.08
2019-03-10T00:18:05.804Z,974.13
2019-03-10T00:19:05.786Z,974.08
2019-03-10T00:20:05.796Z,974.08
2019-03-10T00:21:05.801Z,974.22
2019-03-10T00:22:05.816Z,974.16
2019-03-10T00:23:05.784Z,974.22
2019-03-10T00:24:05.872Z,974.16
2019-03-10T00:25:05.878Z,973.91
2019-03-10T00:26:05.813Z,974.16
2019-03-10T00:27:05.846Z,974.13
2019-03-10T00:28:05.822Z,974.05
2019-03-10T00:29:05.811Z,974.13
2019-03-10T00:30:05.858Z,974.13
2019-03-10T00:31:05.812Z,974.02
2019-03-10T00:32:05.812Z,974.16
2019-03-10T00:33:05.802Z,974.13
2019-03-10T00:34:05.882Z,974.19
2019-03-10T00:35:05.803Z,974.02
2019-03-10T00:36:05.816Z,974.13
2019-03-10T00:37:05.806Z,974.05
2019-03-10T00:38:05.814Z,974.02
2019-03-10T00:39:05.804Z,974.02
2019-03-10T00:40:05.871Z,974.04
2019-03-10T00:41:05.827Z,974.04
2019-03-10T00:42:05.781Z,973.99
2019-03-10T00:43:05.812Z,973.96
2019-03-10T00:44:05.955Z,973.96
2019-03-10T00:45:05.817Z,974.02
2019-03-10T00:46:05.813Z,973.93
2019-03-10T00:47:05.795Z,974.01
2019-03-10T00:48:05.823Z,974.04
2019-03-10T00:50:05.898Z,973.79
2019-03-10T00:50:10.640Z,973.96
2019-03-10T00:51:05.851Z,973.82
2019-03-10T00:52:05.845Z,973.98
2019-03-10T00:53:05.838Z,973.90
2019-03-10T00:54:05.827Z,973.84
2019-03-10T00:55:05.831Z,973.93
2019-03-10T00:56:05.887Z,973.81
2019-03-10T00:57:05.857Z,973.81
2019-03-10T00:58:05.836Z,973.84
2019-03-10T00:59:05.831Z,973.87
2019-03-10T01:00:05.852Z,973.92
2019-03-10T01:01:05.844Z,973.81
2019-03-10T01:02:05.811Z,973.92
2019-03-10T01:03:05.845Z,973.81
2019-03-10T01:04:05.806Z,973.89
2019-03-10T01:05:05.825Z,973.92
2019-03-10T01:06:05.833Z,973.92
2019-03-10T01:07:05.839Z,973.86
2019-03-10T01:08:05.826Z,974.00
2019-03-10T01:09:05.851Z,973.89
2019-03-10T01:10:05.849Z,973.89
2019-03-10T01:11:05.903Z,973.86
2019-03-10T01:12:05.893Z,973.92
2019-03-10T01:13:05.852Z,973.83
2019-03-10T01:14:05.835Z,973.92
2019-03-10T01:15:05.868Z,973.89
2019-03-10T01:16:05.895Z,973.89
2019-03-10T01:17:05.855Z,974.05
2019-03-10T01:18:05.894Z,973.89
2019-03-10T01:19:05.887Z,973.80
2019-03-10T01:20:05.871Z,973.89
2019-03-10T01:21:05.855Z,973.86
2019-03-10T01:22:05.874Z,973.80
2019-03-10T01:23:05.861Z,973.88
2019-03-10T01:24:05.865Z,973.88
2019-03-10T01:25:05.875Z,973.83
2019-03-10T01:26:05.841Z,973.74
2019-03-10T01:27:05.863Z,973.80
2019-03-10T01:28:05.905Z,973.63
2019-03-10T01:29:05.868Z,973.74
2019-03-10T01:30:05.999Z,973.83
2019-03-10T01:31:05.880Z,973.71
2019-03-10T01:32:05.840Z,973.74
2019-03-10T01:33:05.864Z,973.82
2019-03-10T01:34:05.845Z,973.80
2019-03-10T01:35:05.856Z,973.74
2019-03-10T01:36:05.881Z,973.68
2019-03-10T01:37:05.870Z,973.60
2019-03-10T01:38:05.898Z,973.60
2019-03-10T01:39:05.920Z,973.74
2019-03-10T01:40:05.891Z,973.68
2019-03-10T01:41:05.843Z,973.57
2019-03-10T01:42:05.885Z,973.68
2019-03-10T01:43:05.865Z,973.60
2019-03-10T01:44:05.911Z,973.68
2019-03-10T01:45:05.902Z,973.62
2019-03-10T01:46:05.890Z,973.65
2019-03-10T01:47:05.899Z,973.65
2019-03-10T01:48:05.891Z,973.60
2019-03-10T01:49:09.536Z,973.60
2019-03-10T01:50:05.886Z,973.57
2019-03-10T01:51:05.888Z,973.44
2019-03-10T01:52:05.956Z,973.44
2019-03-10T01:53:05.904Z,973.44
2019-03-10T01:54:05.886Z,973.54
2019-03-10T01:55:05.891Z,973.41
2019-03-10T01:56:05.891Z,973.32
2019-03-10T01:57:05.897Z,973.44
2019-03-10T01:58:05.904Z,973.27
2019-03-10T01:59:05.915Z,973.29
2019-03-10T02:00:05.953Z,973.27
2019-03-10T02:01:05.891Z,973.24
2019-03-10T02:02:05.928Z,973.27
2019-03-10T02:03:05.925Z,973.15
2019-03-10T02:04:05.886Z,973.21
2019-03-10T02:05:05.903Z,973.15
2019-03-10T02:06:05.901Z,973.07
2019-03-10T02:07:05.920Z,973.21
2019-03-10T02:08:05.914Z,973.18
2019-03-10T02:09:05.923Z,973.12
2019-03-10T02:10:05.894Z,973.26
2019-03-10T02:11:05.905Z,973.12
2019-03-10T02:12:05.961Z,973.07
2019-03-10T02:13:05.876Z,973.15
2019-03-10T02:14:05.914Z,973.21
2019-03-10T02:15:05.908Z,973.29
2019-03-10T02:16:05.955Z,973.18
2019-03-10T02:17:05.942Z,973.29
2019-03-10T02:18:05.936Z,973.26
2019-03-10T02:19:05.922Z,973.07
2019-03-10T02:20:05.906Z,973.15
2019-03-10T02:21:05.988Z,973.21
2019-03-10T02:22:05.941Z,973.01
2019-03-10T02:23:05.918Z,973.07
2019-03-10T02:24:05.900Z,973.12
2019-03-10T02:25:05.925Z,973.07
2019-03-10T02:26:05.937Z,973.09
2019-03-10T02:27:05.925Z,973.07
2019-03-10T02:28:05.879Z,973.12
2019-03-10T02:29:05.893Z,973.07
2019-03-10T02:30:05.922Z,973.07
2019-03-10T02:31:05.957Z,973.12
2019-03-10T02:32:06.001Z,972.98
2019-03-10T02:33:05.913Z,973.01
2019-03-10T02:34:05.965Z,973.01
2019-03-10T02:35:05.951Z,972.90
2019-03-10T02:36:06.015Z,972.76
2019-03-10T02:37:05.988Z,972.87
2019-03-10T02:38:05.949Z,972.62
2019-03-10T02:39:05.935Z,972.82
2019-03-10T02:40:05.943Z,972.84
2019-03-10T02:41:05.946Z,972.79
2019-03-10T02:42:05.979Z,972.85
2019-03-10T02:43:05.934Z,972.79
2019-03-10T02:44:05.952Z,972.73
2019-03-10T02:45:06.042Z,972.79
2019-03-10T02:46:05.945Z,972.68
2019-03-10T02:47:05.954Z,972.62
2019-03-10T02:48:06.012Z,972.74
2019-03-10T02:49:05.965Z,972.74
2019-03-10T02:50:06.028Z,972.62
2019-03-10T02:51:05.990Z,972.68
2019-03-10T02:52:05.936Z,972.68
2019-03-10T02:53:05.937Z,972.71
2019-03-10T02:54:05.950Z,972.65
2019-03-10T02:57:05.995Z,972.54
2019-03-10T02:58:05.959Z,972.44
2019-03-10T03:00:06.018Z,972.46
2019-03-10T03:00:11.014Z,972.46
2019-03-10T03:01:05.966Z,972.49
2019-03-10T03:02:05.965Z,972.41
2019-03-10T03:03:05.923Z,972.46
2019-03-10T03:04:06.010Z,972.41
2019-03-10T03:05:05.924Z,972.30
2019-03-10T03:06:05.915Z,972.41
2019-03-10T03:07:05.970Z,972.18
2019-03-10T03:08:05.917Z,972.18
2019-03-10T03:09:05.991Z,972.35
2019-03-10T03:10:05.958Z,972.24
2019-03-10T03:11:05.964Z,972.29
2019-03-10T03:12:05.977Z,972.18
2019-03-10T03:13:05.948Z,972.07
2019-03-10T03:14:05.972Z,972.13
2019-03-10T03:15:06.081Z,972.15
2019-03-10T03:16:06.024Z,972.15
2019-03-10T03:17:05.966Z,972.07
2019-03-10T03:18:05.967Z,972.01
2019-03-10T03:19:05.989Z,972.07
2019-03-10T03:20:06.117Z,972.09
2019-03-10T03:21:05.947Z,972.12
2019-03-10T03:22:06.001Z,971.98
2019-03-10T03:23:06.027Z,972.07
2019-03-10T03:24:06.044Z,972.07
2019-03-10T03:25:05.956Z,971.95
2019-03-10T03:26:05.964Z,971.74
2019-03-10T03:27:05.932Z,971.95
2019-03-10T03:28:06.059Z,971.79
2019-03-10T03:29:05.944Z,971.90
2019-03-10T03:30:06.522Z,971.79
2019-03-10T03:31:06.009Z,971.77
2019-03-10T03:32:06.187Z,971.77
2019-03-10T03:33:06.052Z,971.74
2019-03-10T03:34:06.110Z,971.68
2019-03-10T03:35:06.084Z,971.71
2019-03-10T03:36:06.105Z,971.66
2019-03-10T03:37:05.979Z,971.38
2019-03-10T03:38:05.968Z,971.52
2019-03-10T03:39:06.022Z,971.60
2019-03-10T03:40:06.064Z,971.43
2019-03-10T03:42:06.038Z,971.52
2019-03-10T03:43:06.013Z,971.55
2019-03-10T03:44:05.979Z,971.63
2019-03-10T03:45:05.967Z,971.40
2019-03-10T03:46:06.021Z,971.57
2019-03-10T03:47:06.026Z,971.52
2019-03-10T03:48:06.119Z,971.52
2019-03-10T03:49:05.983Z,971.57
2019-03-10T03:50:05.988Z,971.46
2019-03-10T03:51:06.001Z,971.49
2019-03-10T03:52:06.089Z,971.43
2019-03-10T03:53:06.010Z,971.46
2019-03-10T03:54:06.024Z,971.52
2019-03-10T03:55:06.024Z,971.46
2019-03-10T03:56:06.024Z,971.52
2019-03-10T03:57:06.004Z,971.52
2019-03-10T03:58:06.001Z,971.43
2019-03-10T04:00:06.036Z,971.32
2019-03-10T04:01:06.007Z,971.38
2019-03-10T04:02:06.058Z,971.23
2019-03-10T04:03:06.036Z,971.23
2019-03-10T04:04:06.087Z,971.32
2019-03-10T04:05:06.038Z,971.40
2019-03-10T04:06:06.038Z,971.23
2019-03-10T04:07:06.024Z,971.40
2019-03-10T04:08:06.108Z,971.18
2019-03-10T04:09:06.062Z,971.29
2019-03-10T04:10:06.019Z,971.23
2019-03-10T04:11:06.040Z,971.23
2019-03-10T04:12:06.068Z,971.17
2019-03-10T04:13:06.037Z,971.06
2019-03-10T04:14:06.085Z,971.01
2019-03-10T04:15:06.035Z,971.01
2019-03-10T04:16:06.015Z,971.06
2019-03-10T04:17:06.069Z,971.06
2019-03-10T04:18:06.011Z,971.09
2019-03-10T04:19:06.003Z,971.06
2019-03-10T04:20:06.011Z,971.09
2019-03-10T04:21:06.047Z,971.00
2019-03-10T04:22:06.030Z,971.03
2019-03-10T04:23:06.067Z,971.12
2019-03-10T04:24:06.146Z,970.83
2019-03-10T04:25:06.036Z,971.00
2019-03-10T04:26:06.053Z,970.92
2019-03-10T04:27:06.036Z,970.97
2019-03-10T04:28:06.039Z,970.95
2019-03-10T04:29:06.063Z,971.00
2019-03-10T04:30:06.021Z,970.86
2019-03-10T04:31:06.072Z,970.86
2019-03-10T04:33:06.065Z,970.92
2019-03-10T04:34:06.034Z,970.92
2019-03-10T04:35:06.071Z,970.80
2019-03-10T04:36:06.055Z,970.86
2019-03-10T04:37:06.020Z,970.83
2019-03-10T04:38:06.032Z,970.89
2019-03-10T04:39:06.043Z,970.80
2019-03-10T04:40:06.106Z,970.83
2019-03-10T04:41:06.067Z,970.74
2019-03-10T04:42:05.990Z,970.77
2019-03-10T04:43:06.050Z,970.74
2019-03-10T04:44:06.048Z,970.88
2019-03-10T04:45:06.058Z,970.83
2019-03-10T04:46:06.035Z,970.91
2019-03-10T04:47:06.053Z,970.83
2019-03-10T04:48:06.087Z,970.83
2019-03-10T04:49:09.639Z,970.74
2019-03-10T04:50:06.077Z,970.66
2019-03-10T04:51:06.020Z,970.60
2019-03-10T04:52:06.075Z,970.60
2019-03-10T04:53:06.027Z,970.71
2019-03-10T04:54:06.022Z,970.60
2019-03-10T04:55:06.037Z,970.54
2019-03-10T04:56:06.063Z,970.66
2019-03-10T04:57:06.031Z,970.63
2019-03-10T04:58:06.029Z,970.52
2019-03-10T04:59:06.115Z,970.49
2019-03-10T05:00:06.021Z,970.68
2019-03-10T05:02:06.106Z,970.54
2019-03-10T05:03:06.087Z,970.51
2019-03-10T05:04:06.060Z,970.57
2019-03-10T05:05:06.046Z,970.57
2019-03-10T05:06:06.028Z,970.54
2019-03-10T05:07:06.098Z,970.54
2019-03-10T05:08:06.046Z,970.48
2019-03-10T05:09:06.109Z,970.46
2019-03-10T05:10:06.137Z,970.48
2019-03-10T05:11:06.122Z,970.60
2019-03-10T05:12:06.081Z,970.51
2019-03-10T05:13:06.078Z,970.48
2019-03-10T05:14:06.125Z,970.41
2019-03-10T05:15:06.140Z,970.35
2019-03-10T05:16:06.080Z,970.33
2019-03-10T05:17:06.062Z,970.38
2019-03-10T05:18:06.039Z,970.35
2019-03-10T05:19:06.067Z,970.38
2019-03-10T05:20:06.104Z,970.51
2019-03-10T05:21:06.062Z,970.41
2019-03-10T05:22:06.068Z,970.35
2019-03-10T05:23:06.096Z,970.22
2019-03-10T05:24:06.089Z,970.33
2019-03-10T05:25:06.091Z,970.13
2019-03-10T05:26:06.082Z,970.24
2019-03-10T05:27:06.146Z,970.36
2019-03-10T05:28:06.106Z,970.22
2019-03-10T05:29:06.057Z,970.19
2019-03-10T05:30:06.102Z,970.24
2019-03-10T05:31:06.077Z,970.08
2019-03-10T05:32:06.065Z,970.13
2019-03-10T05:33:06.079Z,970.16
2019-03-10T05:34:06.092Z,970.08
2019-03-10T05:35:06.074Z,970.05
2019-03-10T05:36:06.082Z,970.08
2019-03-10T05:37:06.049Z,970.08
2019-03-10T05:38:06.085Z,970.05
2019-03-10T05:39:06.116Z,969.99
2019-03-10T05:41:06.071Z,969.99
2019-03-10T05:42:06.117Z,969.78
2019-03-10T05:43:06.152Z,969.89
2019-03-10T05:44:06.122Z,969.78
2019-03-10T05:45:06.075Z,969.97
2019-03-10T05:46:06.126Z,969.69
2019-03-10T05:47:06.292Z,969.72
2019-03-10T05:48:06.168Z,969.80
2019-03-10T05:49:06.085Z,969.69
2019-03-10T05:50:06.117Z,969.69
2019-03-10T05:51:06.089Z,969.69
2019-03-10T05:52:06.137Z,969.78
2019-03-10T05:53:06.132Z,969.75
2019-03-10T05:54:06.131Z,969.72
2019-03-10T05:55:06.145Z,969.77
2019-03-10T05:56:06.170Z,969.72
2019-03-10T05:57:06.093Z,969.52
2019-03-10T05:58:06.101Z,969.60
2019-03-10T05:59:06.152Z,969.63
2019-03-10T06:00:06.179Z,969.49
2019-03-10T06:01:06.111Z,969.46
2019-03-10T06:02:06.110Z,969.37
2019-03-10T06:03:06.158Z,969.40
2019-03-10T06:04:06.086Z,969.35
2019-03-10T06:05:06.509Z,969.40
2019-03-10T06:06:06.080Z,969.32
2019-03-10T06:07:06.122Z,969.26
2019-03-10T06:08:06.097Z,969.23
2019-03-10T06:09:06.141Z,969.26
2019-03-10T06:10:06.126Z,969.06
2019-03-10T06:11:06.109Z,969.17
2019-03-10T06:12:06.145Z,969.12
2019-03-10T06:13:06.116Z,969.09
2019-03-10T06:14:06.151Z,969.00
2019-03-10T06:15:06.241Z,969.09
2019-03-10T06:16:06.115Z,968.92
2019-03-10T06:17:06.105Z,968.95
2019-03-10T06:18:14.307Z,968.83
2019-03-10T06:19:06.143Z,968.78
2019-03-10T06:20:06.099Z,968.75
2019-03-10T06:21:06.094Z,968.86
2019-03-10T06:22:06.126Z,968.75
2019-03-10T06:23:06.138Z,968.70
2019-03-10T06:24:06.120Z,968.80
2019-03-10T06:25:06.193Z,968.72
2019-03-10T06:26:06.193Z,968.75
2019-03-10T06:28:06.155Z,968.72
2019-03-10T06:28:10.981Z,968.70
2019-03-10T06:29:06.150Z,968.94
2019-03-10T06:30:06.160Z,968.94
2019-03-10T06:31:06.212Z,968.78
2019-03-10T06:32:06.113Z,968.78
2019-03-10T06:33:06.143Z,968.65
2019-03-10T06:34:06.113Z,968.83
2019-03-10T06:35:06.145Z,968.72
2019-03-10T06:36:06.105Z,968.86
2019-03-10T06:37:06.149Z,968.70
2019-03-10T06:38:06.146Z,968.80
2019-03-10T06:39:06.120Z,968.95
2019-03-10T06:40:06.133Z,968.86
2019-03-10T06:41:06.183Z,969.12
2019-03-10T06:42:06.162Z,969.03
2019-03-10T06:43:06.177Z,968.97
2019-03-10T06:44:06.155Z,968.89
2019-03-10T06:45:06.166Z,968.97
2019-03-10T06:46:06.174Z,968.86
2019-03-10T06:47:06.248Z,968.83
2019-03-10T06:48:06.157Z,968.83
2019-03-10T06:49:06.160Z,968.89
2019-03-10T06:50:06.144Z,968.92
2019-03-10T06:51:06.396Z,968.92
2019-03-10T06:52:06.161Z,968.89
2019-03-10T06:53:06.219Z,968.75
2019-03-10T06:54:06.155Z,968.81
2019-03-10T06:55:06.019Z,968.89
2019-03-10T06:56:05.964Z,968.78
2019-03-10T06:57:06.292Z,968.81
2019-03-10T06:58:06.275Z,968.72
2019-03-10T06:59:06.223Z,968.75
2019-03-10T07:00:06.228Z,968.73
2019-03-10T07:01:06.169Z,968.60
2019-03-10T07:02:06.174Z,968.71
2019-03-10T07:03:06.239Z,968.65
2019-03-10T07:04:06.190Z,968.62
2019-03-10T07:05:06.167Z,968.71
2019-03-10T07:06:06.214Z,968.54
2019-03-10T07:07:06.134Z,968.63
2019-03-10T07:08:06.154Z,968.71
2019-03-10T07:09:06.229Z,968.66
2019-03-10T07:10:06.213Z,968.69
2019-03-10T07:11:06.179Z,968.52
2019-03-10T07:12:06.142Z,968.63
2019-03-10T07:14:06.165Z,968.52
2019-03-10T07:15:06.189Z,968.44
2019-03-10T07:16:06.197Z,968.49
2019-03-10T07:17:06.148Z,968.58
2019-03-10T07:18:06.170Z,968.41
2019-03-10T07:19:06.269Z,968.38
2019-03-10T07:20:06.190Z,968.44
2019-03-10T07:21:06.219Z,968.35
2019-03-10T07:22:06.180Z,968.38
2019-03-10T07:23:06.167Z,968.27
2019-03-10T07:24:06.193Z,968.24
2019-03-10T07:25:06.191Z,968.27
2019-03-10T07:26:06.198Z,968.30
2019-03-10T07:27:06.257Z,968.24
2019-03-10T07:28:06.206Z,968.16
2019-03-10T07:29:06.266Z,968.21
2019-03-10T07:30:06.220Z,968.21
2019-03-10T07:31:06.229Z,968.27
2019-03-10T07:32:08.766Z,968.16
2019-03-10T07:33:06.204Z,968.24
2019-03-10T07:34:06.241Z,968.24
2019-03-10T07:35:06.265Z,967.99
2019-03-10T07:36:06.224Z,968.02
2019-03-10T07:37:06.207Z,968.07
2019-03-10T07:38:06.192Z,968.07
2019-03-10T07:39:06.207Z,967.96
2019-03-10T07:40:06.197Z,968.07
2019-03-10T07:41:06.191Z,968.16
2019-03-10T07:42:06.215Z,968.02
2019-03-10T07:43:06.209Z,967.90
2019-03-10T07:44:06.172Z,967.87
2019-03-10T07:45:06.180Z,967.84
2019-03-10T07:46:06.037Z,967.90
2019-03-10T07:47:06.249Z,967.84
2019-03-10T07:48:06.186Z,967.81
2019-03-10T07:49:06.202Z,967.73
2019-03-10T07:50:06.207Z,967.73
2019-03-10T07:51:06.220Z,967.67
2019-03-10T07:52:06.090Z,967.70
2019-03-10T07:53:06.208Z,967.73
2019-03-10T07:54:06.405Z,967.75
2019-03-10T07:55:06.186Z,967.75
2019-03-10T07:56:06.242Z,967.70
2019-03-10T07:57:06.254Z,967.53
2019-03-10T07:58:06.218Z,967.56
2019-03-10T07:59:06.216Z,967.64
2019-03-10T08:00:05.957Z,967.47
2019-03-10T08:01:06.230Z,967.34
2019-03-10T08:02:06.221Z,967.47
2019-03-10T08:03:06.317Z,967.44
2019-03-10T08:04:06.223Z,967.44
2019-03-10T08:05:06.217Z,967.25
2019-03-10T08:06:06.299Z,967.44
2019-03-10T08:07:06.265Z,967.22
2019-03-10T08:08:06.229Z,967.30
2019-03-10T08:09:05.912Z,967.19
2019-03-10T08:10:06.258Z,967.00
2019-03-10T08:11:06.242Z,967.00
2019-03-10T08:12:06.231Z,967.00
2019-03-10T08:13:06.238Z,967.08
2019-03-10T08:14:06.237Z,967.00
2019-03-10T08:15:06.248Z,966.89
2019-03-10T08:16:06.214Z,967.00
2019-03-10T08:17:06.273Z,966.97
2019-03-10T08:18:06.283Z,967.04
2019-03-10T08:19:05.926Z,966.97
2019-03-10T08:20:06.282Z,966.94
2019-03-10T08:21:06.242Z,967.10
2019-03-10T08:22:06.091Z,966.94
2019-03-10T08:23:06.223Z,967.02
2019-03-10T08:24:06.225Z,966.83
2019-03-10T08:25:06.228Z,966.89
2019-03-10T08:26:06.242Z,966.72
2019-03-10T08:27:06.222Z,966.83
2019-03-10T08:28:06.247Z,966.60
2019-03-10T08:29:06.071Z,966.66
2019-03-10T08:30:06.244Z,966.60
2019-03-10T08:31:06.236Z,966.66
2019-03-10T08:32:06.262Z,966.38
2019-03-10T08:33:06.278Z,966.74
2019-03-10T08:34:06.236Z,966.46
2019-03-10T08:35:06.254Z,966.58
2019-03-10T08:36:06.247Z,966.41
2019-03-10T08:37:06.307Z,966.63
2019-03-10T08:38:06.265Z,966.49
2019-03-10T08:39:06.262Z,966.35
2019-03-10T08:40:09.956Z,966.44
2019-03-10T08:41:06.245Z,966.33
2019-03-10T08:42:06.265Z,966.27
2019-03-10T08:43:06.280Z,966.24
2019-03-10T08:44:06.326Z,966.19
2019-03-10T08:45:06.242Z,966.13
2019-03-10T08:46:06.270Z,966.16
2019-03-10T08:47:06.265Z,966.24
2019-03-10T08:48:06.282Z,966.07
2019-03-10T08:49:06.259Z,966.16
2019-03-10T08:50:06.260Z,966.04
2019-03-10T08:51:06.296Z,966.04
2019-03-10T08:52:06.243Z,965.99
2019-03-10T08:53:06.337Z,965.87
2019-03-10T08:54:06.259Z,965.90
2019-03-10T08:55:06.276Z,965.93
2019-03-10T08:56:06.440Z,966.07
2019-03-10T08:57:06.243Z,965.84
2019-03-10T08:58:06.283Z,965.84
2019-03-10T08:59:06.266Z,965.78
2019-03-10T09:00:06.264Z,965.76
2019-03-10T09:01:06.255Z,965.70
2019-03-10T09:02:06.257Z,965.60
2019-03-10T09:03:06.110Z,965.51
2019-03-10T09:04:06.275Z,965.64
2019-03-10T09:05:06.269Z,965.48
2019-03-10T09:06:06.377Z,965.53
2019-03-10T09:07:06.282Z,965.53
2019-03-10T09:08:06.246Z,965.59
2019-03-10T09:09:06.393Z,965.42
2019-03-10T09:10:06.298Z,965.42
2019-03-10T09:11:06.250Z,965.47
2019-03-10T09:12:06.269Z,965.36
2019-03-10T09:13:06.298Z,965.27
2019-03-10T09:14:06.323Z,965.24
2019-03-10T09:15:06.330Z,965.13
2019-03-10T09:16:06.310Z,965.16
2019-03-10T09:17:06.342Z,965.16
2019-03-10T09:18:06.277Z,965.16
2019-03-10T09:19:06.273Z,964.93
2019-03-10T09:20:06.282Z,964.90
2019-03-10T09:21:06.292Z,964.90
2019-03-10T09:22:06.273Z,964.74
2019-03-10T09:23:06.283Z,964.68
2019-03-10T09:24:06.393Z,964.71
2019-03-10T09:25:06.311Z,964.65
2019-03-10T09:26:06.308Z,964.59
2019-03-10T09:27:06.305Z,964.67
2019-03-10T09:28:06.275Z,964.67
2019-03-10T09:29:06.347Z,964.53
2019-03-10T09:30:06.328Z,964.56
2019-03-10T09:31:06.298Z,964.61
2019-03-10T09:32:06.342Z,964.67
2019-03-10T09:33:06.327Z,964.53
2019-03-10T09:34:06.316Z,964.47
2019-03-10T09:35:06.306Z,964.58
2019-03-10T09:36:06.300Z,964.52
2019-03-10T09:37:06.341Z,964.55
2019-03-10T09:38:06.288Z,964.52
2019-03-10T09:39:06.329Z,964.41
2019-03-10T09:40:06.370Z,964.26
2019-03-10T09:41:06.333Z,964.37
2019-03-10T09:42:06.288Z,964.29
2019-03-10T09:43:06.303Z,964.26
2019-03-10T09:44:06.334Z,964.34
2019-03-10T09:45:06.302Z,964.26
2019-03-10T09:46:06.280Z,964.31
2019-03-10T09:47:06.370Z,964.25
2019-03-10T09:48:06.334Z,964.08
2019-03-10T09:49:06.316Z,964.11
2019-03-10T09:50:06.366Z,964.08
2019-03-10T09:51:06.314Z,964.05
2019-03-10T09:52:06.319Z,963.99
2019-03-10T09:53:06.292Z,963.96
2019-03-10T09:54:06.319Z,964.04
2019-03-10T09:55:06.430Z,963.95
2019-03-10T09:56:06.304Z,963.85
2019-03-10T09:57:06.358Z,963.79
2019-03-10T09:58:06.295Z,963.73
2019-03-10T09:59:06.348Z,963.84
2019-03-10T10:00:06.297Z,963.89
2019-03-10T10:01:06.336Z,963.70
2019-03-10T10:02:06.164Z,963.70
2019-03-10T10:03:06.315Z,963.61
2019-03-10T10:04:06.339Z,963.61
2019-03-10T10:06:06.362Z,963.61
2019-03-10T10:07:06.439Z,963.69
2019-03-10T10:08:06.362Z,963.66
2019-03-10T10:09:06.399Z,963.54
2019-03-10T10:10:06.354Z,963.46
2019-03-10T10:11:06.354Z,963.37
2019-03-10T10:12:14.003Z,963.29
2019-03-10T10:13:06.023Z,963.28
2019-03-10T10:14:06.212Z,963.31
2019-03-10T10:15:06.322Z,963.31
2019-03-10T10:16:06.345Z,963.36
2019-03-10T10:17:06.352Z,963.44
2019-03-10T10:18:06.311Z,963.44
2019-03-10T10:19:06.328Z,963.33
2019-03-10T10:20:06.354Z,963.36
2019-03-10T10:21:06.375Z,963.21
2019-03-10T10:22:06.386Z,963.24
2019-03-10T10:23:06.342Z,963.20
2019-03-10T10:24:06.348Z,963.12
2019-03-10T10:25:06.357Z,963.20
2019-03-10T10:26:06.405Z,963.25
2019-03-10T10:27:06.393Z,963.31
2019-03-10T10:28:06.349Z,963.14
2019-03-10T10:29:06.339Z,963.14
2019-03-10T10:30:06.385Z,963.08
2019-03-10T10:31:06.399Z,963.13
2019-03-10T10:32:06.339Z,962.90
2019-03-10T10:33:06.345Z,963.13
2019-03-10T10:34:06.378Z,962.93
2019-03-10T10:35:06.325Z,962.96
2019-03-10T10:36:06.354Z,962.90
2019-03-10T10:37:06.229Z,962.89
2019-03-10T10:38:06.343Z,962.87
2019-03-10T10:40:06.252Z,962.92
2019-03-10T10:41:06.386Z,962.58
2019-03-10T10:42:06.076Z,962.72
2019-03-10T10:43:06.397Z,962.57
2019-03-10T10:44:06.377Z,962.48
2019-03-10T10:46:06.231Z,962.62
2019-03-10T10:47:06.404Z,962.51
2019-03-10T10:48:06.376Z,962.59
2019-03-10T10:49:06.373Z,962.43
2019-03-10T10:50:06.406Z,962.55
2019-03-10T10:51:06.414Z,962.45
2019-03-10T10:52:06.338Z,962.44
2019-03-10T10:53:06.374Z,962.44
2019-03-10T10:54:06.345Z,962.21
2019-03-10T10:55:06.423Z,962.29
2019-03-10T10:56:06.345Z,962.29
2019-03-10T10:57:06.558Z,962.32
2019-03-10T10:58:06.387Z,962.37
2019-03-10T10:59:06.356Z,962.09
2019-03-10T11:00:06.362Z,962.36
2019-03-10T11:01:06.406Z,962.30
2019-03-10T11:02:06.349Z,962.16
2019-03-10T11:03:06.353Z,962.23
2019-03-10T11:04:06.392Z,962.04
2019-03-10T11:05:06.374Z,962.19
2019-03-10T11:06:10.105Z,962.03
2019-03-10T11:07:06.253Z,962.13
2019-03-10T11:08:06.393Z,962.16
2019-03-10T11:09:06.408Z,962.15
2019-03-10T11:10:06.372Z,962.06
2019-03-10T11:11:06.418Z,962.03
2019-03-10T11:12:06.444Z,962.02
2019-03-10T11:13:06.375Z,962.10
2019-03-10T11:14:06.377Z,962.02
2019-03-10T11:15:06.472Z,961.99
2019-03-10T11:16:06.358Z,961.99
2019-03-10T11:17:06.397Z,961.93
2019-03-10T11:18:10.227Z,961.95
2019-03-10T11:19:06.287Z,961.89
2019-03-10T11:20:06.409Z,962.01
2019-03-10T11:21:06.410Z,961.86
2019-03-10T11:22:06.407Z,961.72
2019-03-10T11:23:06.391Z,961.83
2019-03-10T11:24:06.428Z,961.82
2019-03-10T11:25:06.392Z,961.79
2019-03-10T11:26:08.856Z,961.71
2019-03-10T11:27:05.950Z,961.85
2019-03-10T11:28:06.436Z,961.82
2019-03-10T11:30:06.445Z,961.90
2019-03-10T11:30:11.274Z,961.93
2019-03-10T11:31:06.158Z,961.76
2019-03-10T11:32:06.327Z,961.82
2019-03-10T11:33:06.430Z,961.76
2019-03-10T11:34:06.418Z,961.84
2019-03-10T11:35:10.297Z,961.67
2019-03-10T11:36:06.448Z,961.61
2019-03-10T11:37:06.411Z,961.67
2019-03-10T11:38:06.386Z,961.64
2019-03-10T11:39:06.479Z,961.58
2019-03-10T11:40:06.530Z,961.58
2019-03-10T11:41:06.447Z,961.50
2019-03-10T11:43:06.618Z,961.30
2019-03-10T11:44:06.418Z,961.35
2019-03-10T11:45:06.472Z,961.29
2019-03-10T11:46:05.950Z,961.32
2019-03-10T11:47:06.474Z,961.35
2019-03-10T11:48:06.465Z,961.43
2019-03-10T11:49:06.498Z,961.32
2019-03-10T11:50:06.450Z,961.43
2019-03-10T11:51:06.412Z,961.37
2019-03-10T11:52:06.455Z,961.23
2019-03-10T11:53:06.465Z,961.31
2019-03-10T11:54:06.495Z,961.34
2019-03-10T11:55:06.562Z,961.33
2019-03-10T11:56:06.409Z,961.42
2019-03-10T11:57:06.465Z,961.21
2019-03-10T11:58:06.241Z,960.98
2019-03-10T11:59:06.311Z,961.04
2019-03-10T12:00:06.506Z,961.09
2019-03-10T12:01:06.460Z,961.01
2019-03-10T12:02:16.691Z,961.18
2019-03-10T12:04:06.492Z,961.25
2019-03-10T12:05:06.430Z,961.22
2019-03-10T12:06:06.140Z,961.25
2019-03-10T12:07:06.437Z,961.22
2019-03-10T12:08:06.431Z,961.08
2019-03-10T12:09:06.446Z,961.22
2019-03-10T12:10:06.451Z,961.28
2019-03-10T12:11:06.456Z,961.25
2019-03-10T12:12:06.447Z,961.36
2019-03-10T12:13:06.489Z,961.25
2019-03-10T12:14:06.547Z,961.39
2019-03-10T12:15:06.457Z,961.34
2019-03-10T12:16:06.479Z,961.36
2019-03-10T12:17:06.461Z,960.94
2019-03-10T12:18:06.433Z,961.05
2019-03-10T12:19:06.519Z,960.75
2019-03-10T12:20:06.442Z,960.85
2019-03-10T12:21:06.529Z,960.79
2019-03-10T12:22:06.450Z,960.93
2019-03-10T12:23:06.502Z,960.87
2019-03-10T12:24:06.468Z,960.86
2019-03-10T12:25:06.450Z,960.86
2019-03-10T12:26:06.498Z,960.70
2019-03-10T12:27:06.426Z,960.72
2019-03-10T12:29:06.603Z,960.45
2019-03-10T12:30:06.482Z,960.51
2019-03-10T12:31:06.313Z,960.50
2019-03-10T12:32:06.550Z,960.52
2019-03-10T12:33:06.464Z,960.49
2019-03-10T12:34:06.535Z,960.34
2019-03-10T12:35:06.494Z,960.37
2019-03-10T12:36:06.491Z,960.28
2019-03-10T12:37:06.480Z,960.30
2019-03-10T12:38:06.481Z,960.18
2019-03-10T12:39:06.478Z,960.29
2019-03-10T12:40:06.467Z,960.35
2019-03-10T12:41:06.464Z,960.34
2019-03-10T12:42:06.505Z,960.20